sensor_id;sensor_type;location;lat;lon;timestamp;temperature;humidity
52656;SHT85;35474;51.032;6.998;2023-05-20T00:00:34;13.83;60.56
52656;SHT85;35474;51.032;6.998;2023-05-20T00:03:01;13.80;60.67
52656;SHT85;35474;51.032;6.998;2023-05-20T00:05:28;13.75;60.63
52656;SHT85;35474;51.032;6.998;2023-05-20T00:07:54;13.77;60.83
52656;SHT85;35474;51.032;6.998;2023-05-20T00:10:21;13.78;60.83
52656;SHT85;35474;51.032;6.998;2023-05-20T00:12:47;13.61;61.34
52656;SHT85;35474;51.032;6.998;2023-05-20T00:15:14;13.60;61.57
52656;SHT85;35474;51.032;6.998;2023-05-20T00:17:41;13.43;61.89
52656;SHT85;35474;51.032;6.998;2023-05-20T00:20:07;13.60;61.74
52656;SHT85;35474;51.032;6.998;2023-05-20T00:22:34;13.57;61.61
52656;SHT85;35474;51.032;6.998;2023-05-20T00:25:01;13.63;61.46
52656;SHT85;35474;51.032;6.998;2023-05-20T00:27:28;13.33;62.04
52656;SHT85;35474;51.032;6.998;2023-05-20T00:29:55;13.48;61.76
52656;SHT85;35474;51.032;6.998;2023-05-20T00:32:21;13.43;62.03
52656;SHT85;35474;51.032;6.998;2023-05-20T00:34:55;13.47;61.68
52656;SHT85;35474;51.032;6.998;2023-05-20T00:37:25;13.48;61.66
52656;SHT85;35474;51.032;6.998;2023-05-20T00:39:52;13.50;61.44
52656;SHT85;35474;51.032;6.998;2023-05-20T00:42:19;13.50;61.52
52656;SHT85;35474;51.032;6.998;2023-05-20T00:44:53;13.34;61.74
52656;SHT85;35474;51.032;6.998;2023-05-20T00:47:22;13.39;61.59
52656;SHT85;35474;51.032;6.998;2023-05-20T00:49:52;13.50;61.34
52656;SHT85;35474;51.032;6.998;2023-05-20T00:52:19;13.48;61.40
52656;SHT85;35474;51.032;6.998;2023-05-20T00:54:46;13.51;61.16
52656;SHT85;35474;51.032;6.998;2023-05-20T00:57:15;13.32;61.76
52656;SHT85;35474;51.032;6.998;2023-05-20T00:59:42;13.34;61.73
52656;SHT85;35474;51.032;6.998;2023-05-20T01:02:10;13.48;61.41
52656;SHT85;35474;51.032;6.998;2023-05-20T01:04:37;13.53;61.22
52656;SHT85;35474;51.032;6.998;2023-05-20T01:07:07;13.54;60.95
52656;SHT85;35474;51.032;6.998;2023-05-20T01:09:33;13.50;61.08
52656;SHT85;35474;51.032;6.998;2023-05-20T01:14:50;13.44;61.31
52656;SHT85;35474;51.032;6.998;2023-05-20T01:17:28;13.47;61.27
52656;SHT85;35474;51.032;6.998;2023-05-20T01:19:58;13.32;61.48
52656;SHT85;35474;51.032;6.998;2023-05-20T01:22:26;13.32;61.70
52656;SHT85;35474;51.032;6.998;2023-05-20T01:24:54;13.25;62.03
52656;SHT85;35474;51.032;6.998;2023-05-20T01:27:22;13.29;62.01
52656;SHT85;35474;51.032;6.998;2023-05-20T01:29:49;13.43;61.44
52656;SHT85;35474;51.032;6.998;2023-05-20T01:32:18;13.22;62.27
52656;SHT85;35474;51.032;6.998;2023-05-20T01:34:53;13.18;62.48
52656;SHT85;35474;51.032;6.998;2023-05-20T01:37:21;13.20;62.23
52656;SHT85;35474;51.032;6.998;2023-05-20T01:39:50;13.12;62.52
52656;SHT85;35474;51.032;6.998;2023-05-20T01:42:18;13.30;62.26
52656;SHT85;35474;51.032;6.998;2023-05-20T01:44:46;13.40;61.90
52656;SHT85;35474;51.032;6.998;2023-05-20T01:47:12;13.27;62.24
52656;SHT85;35474;51.032;6.998;2023-05-20T01:49:39;13.09;62.73
52656;SHT85;35474;51.032;6.998;2023-05-20T01:52:06;13.26;62.58
52656;SHT85;35474;51.032;6.998;2023-05-20T01:54:33;13.25;62.45
52656;SHT85;35474;51.032;6.998;2023-05-20T01:57:00;13.22;62.45
52656;SHT85;35474;51.032;6.998;2023-05-20T01:59:26;13.09;62.81
52656;SHT85;35474;51.032;6.998;2023-05-20T02:01:53;13.22;62.54
52656;SHT85;35474;51.032;6.998;2023-05-20T02:04:20;13.05;63.22
52656;SHT85;35474;51.032;6.998;2023-05-20T02:06:47;13.00;63.38
52656;SHT85;35474;51.032;6.998;2023-05-20T02:09:14;12.99;63.71
52656;SHT85;35474;51.032;6.998;2023-05-20T02:11:41;12.95;64.07
52656;SHT85;35474;51.032;6.998;2023-05-20T02:14:08;12.84;64.40
52656;SHT85;35474;51.032;6.998;2023-05-20T02:16:34;12.74;64.95
52656;SHT85;35474;51.032;6.998;2023-05-20T02:19:01;12.68;65.20
52656;SHT85;35474;51.032;6.998;2023-05-20T02:21:28;12.58;65.48
52656;SHT85;35474;51.032;6.998;2023-05-20T02:23:54;12.58;65.67
52656;SHT85;35474;51.032;6.998;2023-05-20T02:26:21;12.54;65.97
52656;SHT85;35474;51.032;6.998;2023-05-20T02:28:47;12.53;65.95
52656;SHT85;35474;51.032;6.998;2023-05-20T02:31:16;12.43;66.07
52656;SHT85;35474;51.032;6.998;2023-05-20T02:33:43;12.34;66.51
52656;SHT85;35474;51.032;6.998;2023-05-20T02:36:10;12.44;66.50
52656;SHT85;35474;51.032;6.998;2023-05-20T02:38:37;12.46;66.43
52656;SHT85;35474;51.032;6.998;2023-05-20T02:41:04;12.37;66.82
52656;SHT85;35474;51.032;6.998;2023-05-20T02:43:31;12.20;67.15
52656;SHT85;35474;51.032;6.998;2023-05-20T02:45:58;12.18;67.39
52656;SHT85;35474;51.032;6.998;2023-05-20T02:48:25;12.21;67.49
52656;SHT85;35474;51.032;6.998;2023-05-20T02:50:52;12.14;67.79
52656;SHT85;35474;51.032;6.998;2023-05-20T02:53:18;12.17;67.63
52656;SHT85;35474;51.032;6.998;2023-05-20T02:55:46;12.06;68.05
52656;SHT85;35474;51.032;6.998;2023-05-20T02:58:13;12.10;67.87
52656;SHT85;35474;51.032;6.998;2023-05-20T03:00:40;12.07;67.88
52656;SHT85;35474;51.032;6.998;2023-05-20T03:03:07;12.10;67.89
52656;SHT85;35474;51.032;6.998;2023-05-20T03:05:35;12.07;67.76
52656;SHT85;35474;51.032;6.998;2023-05-20T03:08:09;11.93;68.33
52656;SHT85;35474;51.032;6.998;2023-05-20T03:10:39;12.02;68.32
52656;SHT85;35474;51.032;6.998;2023-05-20T03:13:06;11.93;68.69
52656;SHT85;35474;51.032;6.998;2023-05-20T03:15:34;11.93;68.78
52656;SHT85;35474;51.032;6.998;2023-05-20T03:18:02;11.85;69.01
52656;SHT85;35474;51.032;6.998;2023-05-20T03:20:29;11.81;69.30
52656;SHT85;35474;51.032;6.998;2023-05-20T03:22:57;11.83;69.01
52656;SHT85;35474;51.032;6.998;2023-05-20T03:25:24;11.89;69.27
52656;SHT85;35474;51.032;6.998;2023-05-20T03:27:51;11.81;69.53
52656;SHT85;35474;51.032;6.998;2023-05-20T03:30:18;11.79;69.50
52656;SHT85;35474;51.032;6.998;2023-05-20T03:32:45;11.88;69.33
52656;SHT85;35474;51.032;6.998;2023-05-20T03:35:11;11.89;69.43
52656;SHT85;35474;51.032;6.998;2023-05-20T03:37:38;11.83;69.66
52656;SHT85;35474;51.032;6.998;2023-05-20T03:40:05;11.78;69.86
52656;SHT85;35474;51.032;6.998;2023-05-20T03:42:32;11.74;70.25
52656;SHT85;35474;51.032;6.998;2023-05-20T03:44:59;11.85;70.20
52656;SHT85;35474;51.032;6.998;2023-05-20T03:47:27;11.74;70.07
52656;SHT85;35474;51.032;6.998;2023-05-20T03:49:54;11.75;70.52
52656;SHT85;35474;51.032;6.998;2023-05-20T03:52:20;11.61;71.07
52656;SHT85;35474;51.032;6.998;2023-05-20T03:54:47;11.61;71.17
52656;SHT85;35474;51.032;6.998;2023-05-20T03:57:14;11.62;71.19
52656;SHT85;35474;51.032;6.998;2023-05-20T03:59:41;11.70;71.10
52656;SHT85;35474;51.032;6.998;2023-05-20T04:02:07;11.75;71.06
52656;SHT85;35474;51.032;6.998;2023-05-20T04:04:35;11.76;71.17
52656;SHT85;35474;51.032;6.998;2023-05-20T04:07:01;11.79;71.13
52656;SHT85;35474;51.032;6.998;2023-05-20T04:09:30;11.95;70.98
52656;SHT85;35474;51.032;6.998;2023-05-20T04:11:57;11.95;70.99
52656;SHT85;35474;51.032;6.998;2023-05-20T04:14:23;12.02;71.06
52656;SHT85;35474;51.032;6.998;2023-05-20T04:16:50;12.20;70.96
52656;SHT85;35474;51.032;6.998;2023-05-20T04:19:17;12.31;70.68
52656;SHT85;35474;51.032;6.998;2023-05-20T04:21:49;12.47;70.12
52656;SHT85;35474;51.032;6.998;2023-05-20T04:24:16;12.54;69.74
52656;SHT85;35474;51.032;6.998;2023-05-20T04:26:42;12.68;69.56
52656;SHT85;35474;51.032;6.998;2023-05-20T04:29:09;12.68;69.42
52656;SHT85;35474;51.032;6.998;2023-05-20T04:31:37;12.68;69.74
52656;SHT85;35474;51.032;6.998;2023-05-20T04:34:03;12.76;69.60
52656;SHT85;35474;51.032;6.998;2023-05-20T04:36:30;12.85;69.34
52656;SHT85;35474;51.032;6.998;2023-05-20T04:38:57;12.89;69.05
52656;SHT85;35474;51.032;6.998;2023-05-20T04:41:24;13.00;68.90
52656;SHT85;35474;51.032;6.998;2023-05-20T04:43:50;13.09;68.66
52656;SHT85;35474;51.032;6.998;2023-05-20T04:46:17;13.13;68.47
52656;SHT85;35474;51.032;6.998;2023-05-20T04:48:45;13.22;68.16
52656;SHT85;35474;51.032;6.998;2023-05-20T04:51:13;13.34;67.82
52656;SHT85;35474;51.032;6.998;2023-05-20T04:53:39;13.23;68.13
52656;SHT85;35474;51.032;6.998;2023-05-20T04:56:06;13.30;68.18
52656;SHT85;35474;51.032;6.998;2023-05-20T04:58:33;13.37;67.95
52656;SHT85;35474;51.032;6.998;2023-05-20T05:01:00;13.39;67.90
52656;SHT85;35474;51.032;6.998;2023-05-20T05:03:28;13.53;67.37
52656;SHT85;35474;51.032;6.998;2023-05-20T05:05:58;13.60;67.37
52656;SHT85;35474;51.032;6.998;2023-05-20T05:08:25;13.60;67.32
52656;SHT85;35474;51.032;6.998;2023-05-20T05:10:52;13.67;67.25
52656;SHT85;35474;51.032;6.998;2023-05-20T05:13:18;13.81;66.88
52656;SHT85;35474;51.032;6.998;2023-05-20T05:15:45;13.95;66.33
52656;SHT85;35474;51.032;6.998;2023-05-20T05:18:11;14.12;65.57
52656;SHT85;35474;51.032;6.998;2023-05-20T05:20:38;14.25;65.40
52656;SHT85;35474;51.032;6.998;2023-05-20T05:23:05;14.35;65.15
52656;SHT85;35474;51.032;6.998;2023-05-20T05:25:32;14.39;64.73
52656;SHT85;35474;51.032;6.998;2023-05-20T05:27:59;14.57;64.51
52656;SHT85;35474;51.032;6.998;2023-05-20T05:30:26;14.53;64.46
52656;SHT85;35474;51.032;6.998;2023-05-20T05:32:52;14.56;64.52
52656;SHT85;35474;51.032;6.998;2023-05-20T05:35:19;14.66;64.33
52656;SHT85;35474;51.032;6.998;2023-05-20T05:37:46;14.64;64.11
52656;SHT85;35474;51.032;6.998;2023-05-20T05:40:12;14.60;64.37
52656;SHT85;35474;51.032;6.998;2023-05-20T05:42:39;14.60;63.99
52656;SHT85;35474;51.032;6.998;2023-05-20T05:45:06;14.63;64.22
52656;SHT85;35474;51.032;6.998;2023-05-20T05:47:33;14.73;63.90
52656;SHT85;35474;51.032;6.998;2023-05-20T05:50:00;14.84;63.76
52656;SHT85;35474;51.032;6.998;2023-05-20T05:52:26;14.84;63.88
52656;SHT85;35474;51.032;6.998;2023-05-20T05:54:53;14.93;63.39
52656;SHT85;35474;51.032;6.998;2023-05-20T05:57:20;15.22;62.83
52656;SHT85;35474;51.032;6.998;2023-05-20T05:59:47;15.32;62.50
52656;SHT85;35474;51.032;6.998;2023-05-20T06:02:13;15.36;62.45
52656;SHT85;35474;51.032;6.998;2023-05-20T06:04:41;15.32;62.31
52656;SHT85;35474;51.032;6.998;2023-05-20T06:07:08;15.39;61.89
52656;SHT85;35474;51.032;6.998;2023-05-20T06:09:35;15.59;61.51
52656;SHT85;35474;51.032;6.998;2023-05-20T06:12:01;15.72;61.58
52656;SHT85;35474;51.032;6.998;2023-05-20T06:14:28;15.62;61.90
52656;SHT85;35474;51.032;6.998;2023-05-20T06:16:55;15.70;61.36
52656;SHT85;35474;51.032;6.998;2023-05-20T06:19:21;15.62;61.10
52656;SHT85;35474;51.032;6.998;2023-05-20T06:21:50;15.59;61.54
52656;SHT85;35474;51.032;6.998;2023-05-20T06:24:17;15.77;61.21
52656;SHT85;35474;51.032;6.998;2023-05-20T06:26:43;15.86;61.01
52656;SHT85;35474;51.032;6.998;2023-05-20T06:32:34;15.79;61.14
52656;SHT85;35474;51.032;6.998;2023-05-20T06:35:01;15.91;60.77
52656;SHT85;35474;51.032;6.998;2023-05-20T06:37:27;15.93;60.40
52656;SHT85;35474;51.032;6.998;2023-05-20T06:39:54;16.10;60.52
52656;SHT85;35474;51.032;6.998;2023-05-20T06:42:21;16.14;60.34
52656;SHT85;35474;51.032;6.998;2023-05-20T06:44:47;16.07;60.46
52656;SHT85;35474;51.032;6.998;2023-05-20T06:47:15;16.09;60.27
52656;SHT85;35474;51.032;6.998;2023-05-20T06:49:42;16.22;60.54
52656;SHT85;35474;51.032;6.998;2023-05-20T06:52:12;16.45;60.12
52656;SHT85;35474;51.032;6.998;2023-05-20T06:54:39;16.49;59.87
52656;SHT85;35474;51.032;6.998;2023-05-20T06:57:07;16.64;59.89
52656;SHT85;35474;51.032;6.998;2023-05-20T06:59:34;16.68;59.53
52656;SHT85;35474;51.032;6.998;2023-05-20T07:02:03;16.80;59.33
52656;SHT85;35474;51.032;6.998;2023-05-20T07:04:30;16.89;59.05
52656;SHT85;35474;51.032;6.998;2023-05-20T07:06:57;16.92;58.87
52656;SHT85;35474;51.032;6.998;2023-05-20T07:09:23;16.93;58.58
52656;SHT85;35474;51.032;6.998;2023-05-20T07:11:50;16.88;58.88
52656;SHT85;35474;51.032;6.998;2023-05-20T07:14:17;17.11;59.15
52656;SHT85;35474;51.032;6.998;2023-05-20T07:16:43;17.24;59.01
52656;SHT85;35474;51.032;6.998;2023-05-20T07:19:10;17.62;58.04
52656;SHT85;35474;51.032;6.998;2023-05-20T07:21:36;17.58;57.83
52656;SHT85;35474;51.032;6.998;2023-05-20T07:24:03;17.38;58.10
52656;SHT85;35474;51.032;6.998;2023-05-20T07:26:30;17.54;57.77
52656;SHT85;35474;51.032;6.998;2023-05-20T07:28:58;17.51;57.94
52656;SHT85;35474;51.032;6.998;2023-05-20T07:31:25;17.48;57.82
52656;SHT85;35474;51.032;6.998;2023-05-20T07:33:52;17.64;57.68
52656;SHT85;35474;51.032;6.998;2023-05-20T07:36:19;17.77;57.58
52656;SHT85;35474;51.032;6.998;2023-05-20T07:38:45;17.92;56.94
52656;SHT85;35474;51.032;6.998;2023-05-20T07:41:28;18.12;56.62
52656;SHT85;35474;51.032;6.998;2023-05-20T07:43:55;18.17;56.65
52656;SHT85;35474;51.032;6.998;2023-05-20T07:46:21;18.29;56.18
52656;SHT85;35474;51.032;6.998;2023-05-20T07:48:48;18.33;55.94
52656;SHT85;35474;51.032;6.998;2023-05-20T07:51:15;18.48;55.74
52656;SHT85;35474;51.032;6.998;2023-05-20T07:53:41;18.63;55.13
52656;SHT85;35474;51.032;6.998;2023-05-20T07:56:08;18.67;55.19
52656;SHT85;35474;51.032;6.998;2023-05-20T07:58:35;18.54;55.35
52656;SHT85;35474;51.032;6.998;2023-05-20T08:01:01;18.64;55.23
52656;SHT85;35474;51.032;6.998;2023-05-20T08:03:28;18.61;55.56
52656;SHT85;35474;51.032;6.998;2023-05-20T08:05:55;18.80;55.12
52656;SHT85;35474;51.032;6.998;2023-05-20T08:08:21;19.01;54.65
52656;SHT85;35474;51.032;6.998;2023-05-20T08:10:49;18.89;54.71
52656;SHT85;35474;51.032;6.998;2023-05-20T08:13:16;18.85;54.99
52656;SHT85;35474;51.032;6.998;2023-05-20T08:15:43;18.89;54.50
52656;SHT85;35474;51.032;6.998;2023-05-20T08:18:09;18.75;54.48
52656;SHT85;35474;51.032;6.998;2023-05-20T08:20:36;18.51;55.33
52656;SHT85;35474;51.032;6.998;2023-05-20T08:23:03;18.78;55.23
52656;SHT85;35474;51.032;6.998;2023-05-20T08:25:29;19.09;54.91
52656;SHT85;35474;51.032;6.998;2023-05-20T08:27:56;19.41;54.69
52656;SHT85;35474;51.032;6.998;2023-05-20T08:30:23;19.78;53.41
52656;SHT85;35474;51.032;6.998;2023-05-20T08:32:49;20.14;52.50
52656;SHT85;35474;51.032;6.998;2023-05-20T08:35:16;20.08;52.43
52656;SHT85;35474;51.032;6.998;2023-05-20T08:37:43;19.95;52.61
52656;SHT85;35474;51.032;6.998;2023-05-20T08:40:10;19.70;52.77
52656;SHT85;35474;51.032;6.998;2023-05-20T08:42:43;20.05;52.60
52656;SHT85;35474;51.032;6.998;2023-05-20T08:45:10;20.32;52.29
52656;SHT85;35474;51.032;6.998;2023-05-20T08:47:40;20.42;52.05
52656;SHT85;35474;51.032;6.998;2023-05-20T08:50:11;20.66;51.70
52656;SHT85;35474;51.032;6.998;2023-05-20T08:52:44;20.51;51.46
52656;SHT85;35474;51.032;6.998;2023-05-20T08:55:23;20.58;51.21
52656;SHT85;35474;51.032;6.998;2023-05-20T08:57:53;20.24;52.39
52656;SHT85;35474;51.032;6.998;2023-05-20T09:00:20;20.52;51.97
52656;SHT85;35474;51.032;6.998;2023-05-20T09:02:52;20.83;51.36
52656;SHT85;35474;51.032;6.998;2023-05-20T09:05:20;20.58;51.89
52656;SHT85;35474;51.032;6.998;2023-05-20T09:07:47;20.48;51.95
52656;SHT85;35474;51.032;6.998;2023-05-20T09:10:14;20.56;51.76
52656;SHT85;35474;51.032;6.998;2023-05-20T09:12:41;20.56;51.98
52656;SHT85;35474;51.032;6.998;2023-05-20T09:15:08;20.65;51.96
52656;SHT85;35474;51.032;6.998;2023-05-20T09:17:35;20.93;51.23
52656;SHT85;35474;51.032;6.998;2023-05-20T09:20:09;21.09;51.17
52656;SHT85;35474;51.032;6.998;2023-05-20T09:22:37;21.85;48.74
52656;SHT85;35474;51.032;6.998;2023-05-20T09:25:04;21.58;49.12
52656;SHT85;35474;51.032;6.998;2023-05-20T09:27:31;21.10;50.19
52656;SHT85;35474;51.032;6.998;2023-05-20T09:29:59;21.42;49.58
52656;SHT85;35474;51.032;6.998;2023-05-20T09:32:25;21.55;49.65
52656;SHT85;35474;51.032;6.998;2023-05-20T09:34:54;22.05;48.30
52656;SHT85;35474;51.032;6.998;2023-05-20T09:37:20;22.10;48.12
52656;SHT85;35474;51.032;6.998;2023-05-20T09:39:54;21.93;49.06
52656;SHT85;35474;51.032;6.998;2023-05-20T09:42:24;22.32;48.08
52656;SHT85;35474;51.032;6.998;2023-05-20T09:44:54;22.59;48.15
52656;SHT85;35474;51.032;6.998;2023-05-20T09:47:23;23.12;46.99
52656;SHT85;35474;51.032;6.998;2023-05-20T09:49:51;23.01;46.91
52656;SHT85;35474;51.032;6.998;2023-05-20T09:52:18;23.47;46.40
52656;SHT85;35474;51.032;6.998;2023-05-20T09:54:46;22.95;46.05
52656;SHT85;35474;51.032;6.998;2023-05-20T09:57:14;22.41;47.51
52656;SHT85;35474;51.032;6.998;2023-05-20T09:59:41;22.12;48.14
52656;SHT85;35474;51.032;6.998;2023-05-20T10:02:09;22.15;48.57
52656;SHT85;35474;51.032;6.998;2023-05-20T10:04:36;22.64;47.76
52656;SHT85;35474;51.032;6.998;2023-05-20T10:07:11;22.87;46.87
52656;SHT85;35474;51.032;6.998;2023-05-20T10:12:31;22.54;47.84
52656;SHT85;35474;51.032;6.998;2023-05-20T10:18:26;22.00;48.95
52656;SHT85;35474;51.032;6.998;2023-05-20T10:21:15;22.32;48.76
52656;SHT85;35474;51.032;6.998;2023-05-20T10:23:43;21.69;49.51
52656;SHT85;35474;51.032;6.998;2023-05-20T10:26:10;21.62;50.01
52656;SHT85;35474;51.032;6.998;2023-05-20T10:28:37;21.48;50.73
52656;SHT85;35474;51.032;6.998;2023-05-20T10:31:16;21.32;51.16
52656;SHT85;35474;51.032;6.998;2023-05-20T10:33:51;21.00;52.00
52656;SHT85;35474;51.032;6.998;2023-05-20T10:36:25;21.07;51.03
52656;SHT85;35474;51.032;6.998;2023-05-20T10:38:56;21.07;51.49
52656;SHT85;35474;51.032;6.998;2023-05-20T10:41:25;20.62;52.13
52656;SHT85;35474;51.032;6.998;2023-05-20T10:44:00;20.62;52.68
52656;SHT85;35474;51.032;6.998;2023-05-20T10:46:29;20.25;53.21
52656;SHT85;35474;51.032;6.998;2023-05-20T10:49:17;20.21;53.45
52656;SHT85;35474;51.032;6.998;2023-05-20T10:51:52;20.56;52.78
52656;SHT85;35474;51.032;6.998;2023-05-20T10:54:20;20.49;52.87
52656;SHT85;35474;51.032;6.998;2023-05-20T10:56:51;20.79;51.92
52656;SHT85;35474;51.032;6.998;2023-05-20T10:59:19;20.87;52.09
52656;SHT85;35474;51.032;6.998;2023-05-20T11:01:47;20.76;52.07
52656;SHT85;35474;51.032;6.998;2023-05-20T11:04:14;20.71;52.13
52656;SHT85;35474;51.032;6.998;2023-05-20T11:06:51;20.87;52.22
52656;SHT85;35474;51.032;6.998;2023-05-20T11:09:19;21.00;51.93
52656;SHT85;35474;51.032;6.998;2023-05-20T11:11:46;21.28;51.38
52656;SHT85;35474;51.032;6.998;2023-05-20T11:14:13;21.11;51.90
52656;SHT85;35474;51.032;6.998;2023-05-20T11:16:40;21.52;50.69
52656;SHT85;35474;51.032;6.998;2023-05-20T11:19:07;22.10;49.89
52656;SHT85;35474;51.032;6.998;2023-05-20T11:21:43;22.25;49.43
52656;SHT85;35474;51.032;6.998;2023-05-20T11:24:11;22.22;49.22
52656;SHT85;35474;51.032;6.998;2023-05-20T11:26:38;22.44;49.09
52656;SHT85;35474;51.032;6.998;2023-05-20T11:29:05;22.22;49.60
52656;SHT85;35474;51.032;6.998;2023-05-20T11:31:32;22.19;49.09
52656;SHT85;35474;51.032;6.998;2023-05-20T11:33:59;22.22;49.02
52656;SHT85;35474;51.032;6.998;2023-05-20T11:36:27;22.47;49.06
52656;SHT85;35474;51.032;6.998;2023-05-20T11:38:58;22.18;49.80
52656;SHT85;35474;51.032;6.998;2023-05-20T11:41:26;22.15;49.93
52656;SHT85;35474;51.032;6.998;2023-05-20T11:43:59;22.43;49.69
52656;SHT85;35474;51.032;6.998;2023-05-20T11:46:26;22.66;48.91
52656;SHT85;35474;51.032;6.998;2023-05-20T11:48:54;22.48;49.21
52656;SHT85;35474;51.032;6.998;2023-05-20T11:51:27;22.76;48.88
52656;SHT85;35474;51.032;6.998;2023-05-20T11:54:01;22.74;49.00
52656;SHT85;35474;51.032;6.998;2023-05-20T11:56:29;22.39;49.37
52656;SHT85;35474;51.032;6.998;2023-05-20T11:58:59;22.26;49.73
52656;SHT85;35474;51.032;6.998;2023-05-20T12:01:28;22.50;49.03
52656;SHT85;35474;51.032;6.998;2023-05-20T12:03:56;22.59;49.54
52656;SHT85;35474;51.032;6.998;2023-05-20T12:06:23;22.63;49.53
52656;SHT85;35474;51.032;6.998;2023-05-20T12:08:50;22.63;49.26
52656;SHT85;35474;51.032;6.998;2023-05-20T12:11:16;22.47;49.96
52656;SHT85;35474;51.032;6.998;2023-05-20T12:13:43;22.40;50.10
52656;SHT85;35474;51.032;6.998;2023-05-20T12:16:09;22.66;49.94
52656;SHT85;35474;51.032;6.998;2023-05-20T12:18:36;22.83;48.85
52656;SHT85;35474;51.032;6.998;2023-05-20T12:21:03;22.81;49.27
52656;SHT85;35474;51.032;6.998;2023-05-20T12:23:29;22.70;49.71
52656;SHT85;35474;51.032;6.998;2023-05-20T12:25:59;22.59;49.78
52656;SHT85;35474;51.032;6.998;2023-05-20T12:28:26;22.44;50.25
52656;SHT85;35474;51.032;6.998;2023-05-20T12:30:53;22.83;49.05
52656;SHT85;35474;51.032;6.998;2023-05-20T12:33:19;22.78;49.52
52656;SHT85;35474;51.032;6.998;2023-05-20T12:35:46;22.77;49.65
52656;SHT85;35474;51.032;6.998;2023-05-20T12:38:22;22.81;49.49
52656;SHT85;35474;51.032;6.998;2023-05-20T12:40:49;22.91;48.99
52656;SHT85;35474;51.032;6.998;2023-05-20T12:43:15;22.80;49.55
52656;SHT85;35474;51.032;6.998;2023-05-20T12:45:42;22.64;50.00
52656;SHT85;35474;51.032;6.998;2023-05-20T12:48:09;23.05;48.19
52656;SHT85;35474;51.032;6.998;2023-05-20T12:50:36;22.51;50.26
52656;SHT85;35474;51.032;6.998;2023-05-20T12:53:03;22.90;48.17
52656;SHT85;35474;51.032;6.998;2023-05-20T12:55:32;23.15;47.40
52656;SHT85;35474;51.032;6.998;2023-05-20T12:57:59;22.98;47.99
52656;SHT85;35474;51.032;6.998;2023-05-20T13:00:26;23.84;47.02
52656;SHT85;35474;51.032;6.998;2023-05-20T13:02:56;23.70;46.08
52656;SHT85;35474;51.032;6.998;2023-05-20T13:05:23;23.73;46.32
52656;SHT85;35474;51.032;6.998;2023-05-20T13:07:50;23.32;47.27
52656;SHT85;35474;51.032;6.998;2023-05-20T13:10:16;22.91;48.15
52656;SHT85;35474;51.032;6.998;2023-05-20T13:12:43;22.98;47.81
52656;SHT85;35474;51.032;6.998;2023-05-20T13:15:11;23.34;47.07
52656;SHT85;35474;51.032;6.998;2023-05-20T13:17:40;23.31;47.46
52656;SHT85;35474;51.032;6.998;2023-05-20T13:20:08;23.59;46.39
52656;SHT85;35474;51.032;6.998;2023-05-20T13:22:36;23.41;46.42
52656;SHT85;35474;51.032;6.998;2023-05-20T13:25:03;23.38;46.84
52656;SHT85;35474;51.032;6.998;2023-05-20T13:27:30;24.27;44.72
52656;SHT85;35474;51.032;6.998;2023-05-20T13:29:57;23.66;45.44
52656;SHT85;35474;51.032;6.998;2023-05-20T13:32:24;22.91;47.52
52656;SHT85;35474;51.032;6.998;2023-05-20T13:34:51;23.05;47.23
52656;SHT85;35474;51.032;6.998;2023-05-20T13:37:17;23.42;46.63
52656;SHT85;35474;51.032;6.998;2023-05-20T13:39:44;23.34;46.56
52656;SHT85;35474;51.032;6.998;2023-05-20T13:42:11;24.01;45.11
52656;SHT85;35474;51.032;6.998;2023-05-20T13:44:37;23.76;45.46
52656;SHT85;35474;51.032;6.998;2023-05-20T13:47:04;23.52;46.45
52656;SHT85;35474;51.032;6.998;2023-05-20T13:49:31;24.69;43.88
52656;SHT85;35474;51.032;6.998;2023-05-20T13:51:58;23.83;44.71
52656;SHT85;35474;51.032;6.998;2023-05-20T13:54:24;23.58;45.88
52656;SHT85;35474;51.032;6.998;2023-05-20T13:56:51;23.15;46.29
52656;SHT85;35474;51.032;6.998;2023-05-20T13:59:18;22.68;47.30
52656;SHT85;35474;51.032;6.998;2023-05-20T14:01:45;22.85;47.51
52656;SHT85;35474;51.032;6.998;2023-05-20T14:04:12;22.60;47.46
52656;SHT85;35474;51.032;6.998;2023-05-20T14:06:39;22.57;48.25
52656;SHT85;35474;51.032;6.998;2023-05-20T14:09:09;22.60;48.24
52656;SHT85;35474;51.032;6.998;2023-05-20T14:11:36;22.36;48.49
52656;SHT85;35474;51.032;6.998;2023-05-20T14:14:02;22.12;49.16
52656;SHT85;35474;51.032;6.998;2023-05-20T14:16:29;21.79;49.42
52656;SHT85;35474;51.032;6.998;2023-05-20T14:18:57;21.69;49.96
52656;SHT85;35474;51.032;6.998;2023-05-20T14:21:23;21.54;50.89
52656;SHT85;35474;51.032;6.998;2023-05-20T14:23:50;21.83;50.05
52656;SHT85;35474;51.032;6.998;2023-05-20T14:26:17;22.03;50.37
52656;SHT85;35474;51.032;6.998;2023-05-20T14:28:43;21.85;51.20
52656;SHT85;35474;51.032;6.998;2023-05-20T14:31:10;22.22;49.95
52656;SHT85;35474;51.032;6.998;2023-05-20T14:33:37;22.23;49.75
52656;SHT85;35474;51.032;6.998;2023-05-20T14:36:03;22.50;49.46
52656;SHT85;35474;51.032;6.998;2023-05-20T14:38:30;22.39;48.82
52656;SHT85;35474;51.032;6.998;2023-05-20T14:40:57;22.10;49.55
52656;SHT85;35474;51.032;6.998;2023-05-20T14:43:23;22.56;48.50
52656;SHT85;35474;51.032;6.998;2023-05-20T14:45:51;22.61;48.66
52656;SHT85;35474;51.032;6.998;2023-05-20T14:48:18;22.50;49.18
52656;SHT85;35474;51.032;6.998;2023-05-20T14:50:44;22.26;49.48
52656;SHT85;35474;51.032;6.998;2023-05-20T14:53:14;21.89;50.69
52656;SHT85;35474;51.032;6.998;2023-05-20T14:55:41;21.72;50.71
52656;SHT85;35474;51.032;6.998;2023-05-20T14:58:08;21.79;50.64
52656;SHT85;35474;51.032;6.998;2023-05-20T15:00:34;21.62;50.60
52656;SHT85;35474;51.032;6.998;2023-05-20T15:03:02;21.54;50.90
52656;SHT85;35474;51.032;6.998;2023-05-20T15:05:29;21.40;51.21
52656;SHT85;35474;51.032;6.998;2023-05-20T15:07:56;21.14;51.72
52656;SHT85;35474;51.032;6.998;2023-05-20T15:10:22;21.09;52.11
52656;SHT85;35474;51.032;6.998;2023-05-20T15:12:49;20.97;52.96
52656;SHT85;35474;51.032;6.998;2023-05-20T15:15:16;20.71;53.45
52656;SHT85;35474;51.032;6.998;2023-05-20T15:17:43;20.71;53.79
52656;SHT85;35474;51.032;6.998;2023-05-20T15:20:10;20.93;53.33
52656;SHT85;35474;51.032;6.998;2023-05-20T15:22:37;21.00;53.57
52656;SHT85;35474;51.032;6.998;2023-05-20T15:25:03;20.89;53.26
52656;SHT85;35474;51.032;6.998;2023-05-20T15:27:30;20.93;53.01
52656;SHT85;35474;51.032;6.998;2023-05-20T15:29:57;20.72;53.46
52656;SHT85;35474;51.032;6.998;2023-05-20T15:32:24;20.63;53.67
52656;SHT85;35474;51.032;6.998;2023-05-20T15:34:51;20.59;53.99
52656;SHT85;35474;51.032;6.998;2023-05-20T15:37:17;20.46;54.00
52656;SHT85;35474;51.032;6.998;2023-05-20T15:39:44;20.20;54.58
52656;SHT85;35474;51.032;6.998;2023-05-20T15:42:11;20.29;54.42
52656;SHT85;35474;51.032;6.998;2023-05-20T15:44:44;20.13;55.24